Flight Track Log - Related Links

Times and Time Zones

All times are in EDT time to prevent confusion due to time zone crossing. See the DAL3698 flight status page for this flight to view local times or setup timezone preferences in your user account.

Time Position Orientation Groundspeed Altitude Reporting Facility
EDT Latitude Longitude Course Direction KTS MPH feet Rate Location/Type
Sun 01:46:55 PM 40.6500 -74.1833 217° Southwest 170 196 1,500  Level New York TRACON
Sun 01:47:55 PM 40.6167 -74.2167 217° Southwest 209 241 3,900 2,450 Climbing New York TRACON
Sun 01:48:55 PM 40.6000 -74.3000 255° West 215 247 6,400 2,206 Climbing New York TRACON
Sun 01:49:00 PM 40.6834 -74.6428 270° West  Level FlightAware Approximate
Sun 01:50:00 PM 40.6834 -74.8015 270° West  Level FlightAware Approximate
Sun 01:50:30 PM 40.5983 -74.4444 269° West 266 306 9,600  Level New York Center
Sun 01:51:00 PM 40.6833 -74.9603 270° West  Level FlightAware Approximate
Sun 01:51:30 PM 40.6139 -74.5408 282° West 284 327 10,700  Level New York Center
Sun 01:52:00 PM 40.6592 -75.1075 217° Southwest  Level FlightAware Approximate
Sun 01:52:30 PM 40.6325 -74.6733 281° West 325 374 12,300  Level New York Center
Sun 01:53:30 PM 40.6475 -74.7864 280° West 338 389 13,700 1,438 Climbing New York Center
Sun 01:54:31 PM 40.6656 -74.9269 280° West 354 407 15,200 1,339 Climbing New York Center
Sun 01:55:31 PM 40.6794 -75.0589 278° West 363 418 16,400 1,109 Climbing New York Center
Sun 01:56:30 PM 40.6375 -75.1822 246° West 363 418 17,400 706 Climbing New York Center
Sun 01:57:30 PM 40.5831 -75.3017 239° Southwest 369 425 17,800 645 Climbing New York Center
Sun 01:58:31 PM 40.5308 -75.4131 238° Southwest 389 448 18,700 744 Climbing New York Center
Sun 01:59:31 PM 40.4758 -75.5375 240° Southwest 394 453 19,300 694 Climbing New York Center
Sun 02:00:32 PM 40.4164 -75.6614 238° Southwest 394 453 20,100 744 Climbing New York Center
Sun 02:01:32 PM 40.3589 -75.7908 240° Southwest 399 459 20,800 700 Climbing New York Center
Sun 02:02:32 PM 40.2881 -75.9356 237° Southwest 419 482 21,500 650 Climbing New York Center
Sun 02:03:32 PM 40.2283 -76.0642 239° Southwest 424 488 22,100 559 Climbing New York Center
Sun 02:04:30 PM 40.1775 -76.1692 238° Southwest 424 488 22,600 610 Climbing New York Center
Sun 02:05:30 PM 40.1106 -76.3131 239° Southwest 424 488 23,300 645 Climbing New York Center
Sun 02:06:31 PM 40.0500 -76.4467 239° Southwest 424 488 23,900 595 Climbing New York Center
Sun 02:07:31 PM 39.9914 -76.5800 240° Southwest 424 488 24,500 597 Climbing New York Center
Sun 02:09:32 PM 39.8633 -76.8431 238° Southwest 430 495 25,700 597 Climbing Washington Center
Sun 02:10:32 PM 39.8017 -76.9742 239° Southwest 430 495 26,300 545 Climbing Washington Center
Sun 02:11:33 PM 39.7394 -77.1081 239° Southwest 425 489 26,800 496 Climbing Washington Center
Sun 02:12:33 PM 39.6775 -77.2389 238° Southwest 425 489 27,300 496 Climbing Washington Center
Sun 02:13:34 PM 39.6131 -77.3747 238° Southwest 425 489 27,800 356 Climbing Washington Center
Sun 02:14:31 PM 39.5506 -77.5050 238° Southwest 430 495 28,000 102 Climbing Washington Center
Sun 02:15:32 PM 39.4878 -77.6406 239° Southwest 430 495 28,000  Level Washington Center
Sun 02:16:32 PM 39.4186 -77.7811 238° Southwest 449 517 28,000  Level Washington Center
Sun 02:17:33 PM 39.3556 -77.9242 240° Southwest 454 522 28,000  Level Washington Center
Sun 02:18:33 PM 39.2942 -78.0856 244° Southwest 460 529 28,000  Level Washington Center
Sun 02:19:33 PM 39.2347 -78.2283 242° Southwest 465 535 28,000  Level Washington Center
Sun 02:20:32 PM 39.1772 -78.3789 244° Southwest 465 535 28,000  Level Washington Center
Sun 02:21:32 PM 39.1175 -78.5211 242° Southwest 465 535 28,000  Level Washington Center
Sun 02:22:33 PM 39.0597 -78.6658 243° Southwest 460 529 28,000  Level Washington Center
Sun 02:23:31 PM 38.9994 -78.8128 242° Southwest 460 529 28,000  Level Washington Center
Sun 02:24:32 PM 38.9414 -78.9544 242° Southwest 460 529 28,000  Level Washington Center
Sun 02:25:32 PM 38.8811 -79.1011 242° Southwest 460 529 28,000  Level Washington Center
Sun 02:26:33 PM 38.8389 -79.2564 251° West 460 529 28,000  Level Washington Center
Sun 02:27:33 PM 38.8358 -79.4161 269° West 450 518 28,000  Level Washington Center
Sun 02:28:33 PM 38.8328 -79.5758 269° West 455 524 28,000  Level Washington Center
Sun 02:29:31 PM 38.8317 -79.7303 270° West 468 539 28,000  Level Washington Center
Sun 02:30:32 PM 38.8275 -79.9086 268° West 468 539 28,000  Level Washington Center
Sun 02:31:31 PM 38.8219 -80.0672 267° West 458 527 28,000  Level Indianapolis Center
Sun 02:32:33 PM 38.8172 -80.2308 268° West 460 529 28,000  Level Indianapolis Center
Sun 02:33:35 PM 38.8122 -80.3947 268° West 461 531 28,000  Level Indianapolis Center
Sun 02:34:36 PM 38.8083 -80.5575 268° West 457 526 28,000  Level Indianapolis Center
Sun 02:35:38 PM 38.8036 -80.7219 268° West 461 531 28,000  Level Indianapolis Center
Sun 02:36:40 PM 38.7983 -80.8886 268° West 462 532 28,000  Level Indianapolis Center
Sun 02:37:42 PM 38.7753 -81.0464 259° West 456 525 28,000  Level Indianapolis Center
Sun 02:38:44 PM 38.7456 -81.2375 259° West 455 524 28,000  Level Indianapolis Center
Sun 02:39:46 PM 38.7211 -81.3964 259° West 455 524 28,000  Level Indianapolis Center
Sun 02:40:47 PM 38.6950 -81.5564 258° West 458 527 28,000  Level Indianapolis Center
Sun 02:41:49 PM 38.6717 -81.7014 258° West 460 529 28,000 -435 Level Indianapolis Center
Sun 02:42:51 PM 38.6397 -81.8931 258° West 459 528 27,100 -1,113 Descending Indianapolis Center
Sun 02:43:53 PM 38.6131 -82.0539 258° West 461 531 25,700 -1,258 Descending Indianapolis Center
Sun 02:44:55 PM 38.5858 -82.2119 258° West 458 527 24,500 -823 Descending Indianapolis Center
Sun 02:45:57 PM 38.5594 -82.3686 258° West 454 522 24,000 -242 Descending Indianapolis Center
Sun 02:46:59 PM 38.5314 -82.5311 258° West 442 509 24,000  Level Indianapolis Center
Sun 02:48:00 PM 38.5056 -82.6822 258° West 437 503 24,000 -341 Level Indianapolis Center
Sun 02:49:02 PM 38.4781 -82.8378 257° West 445 512 23,300 -919 Descending Indianapolis Center
Sun 02:50:04 PM 38.4469 -83.0153 257° West 443 510 22,100 -1,065 Descending Indianapolis Center
Sun 02:51:06 PM 38.4606 -83.1672 277° West 445 512 21,100 -1,210 Descending Indianapolis Center
Sun 02:52:08 PM 38.4917 -83.3189 285° West 441 507 19,600 -1,839 Descending Indianapolis Center
Sun 02:53:10 PM 38.5222 -83.4639 285° West 428 493 17,300 -2,323 Descending Indianapolis Center
Sun 02:54:12 PM 38.5508 -83.6056 285° West 415 478 14,800 -2,226 Descending Indianapolis Center
Sun 02:55:14 PM 38.5786 -83.7419 285° West 401 461 12,700 -2,195 Descending Indianapolis Center
Sun 02:56:15 PM 38.6097 -83.8969 284° West 387 445 10,300 -1,317 Descending Indianapolis Center
Sun 02:57:17 PM 38.6558 -84.0019 299° West 370 426 10,000 -145 Descending Indianapolis Center
Sun 02:58:19 PM 38.7122 -84.1106 304° West 364 419 10,000  Level Indianapolis Center
Sun 02:59:22 PM 38.7661 -84.2181 303° West 357 411 10,000  Level Indianapolis Center
Sun 03:00:24 PM 38.8222 -84.3244 304° West 356 410 10,000 -435 Level Indianapolis Center
Sun 03:01:26 PM 38.8756 -84.4294 303° West 301 346 9,100 -484 Descending Indianapolis Center
Sun 03:02:28 PM 38.9247 -84.5164 306° West 297 342 9,000 -293 Descending Indianapolis Center
Sun 03:03:29 PM 38.9967 -84.5450 343° North 283 326 8,500 -1,073 Descending Indianapolis Center
Sun 03:04:31 PM 39.0686 -84.5397 North 259 298 6,800 -1,452 Descending Indianapolis Center
Sun 03:05:33 PM 39.1397 -84.5414 359° North 254 292 5,500 -871 Descending Indianapolis Center
Sun 03:06:35 PM 39.1950 -84.5600 345° North 238 274 5,000 -484 Descending Indianapolis Center

Login

Don't have an account? Register now (free) for customized features, flight alerts, and more!